Terminal Aerodrome Forecast
Issued by NWS Wilmington, OH

Home | Current Version | Previous Version | Text Only | Print | Product List | Glossary On
Versions: 1 2 3 4 5 6 7 8 9 10 11 12 13 14 15 16 17 18 19 20 21 22 23 24 25 26
437
FTUS41 KILN 142104 AAD
TAFCVG
TAF AMD
KCVG 142104Z 1421/1524 11012KT 1/4SM +SN FZFG VV008
     FM142300 13012KT 1SM -SN FEW008 OVC012
     FM150000 14010KT 5SM -SN OVC012
     FM150500 16008KT 3SM -FZDZ OVC006
     FM151200 17006KT 2SM -FZDZ OVC004
     FM151500 18006KT 4SM BR VCSH OVC004
     FM152000 15005KT P6SM VCSH OVC008=

USA.gov is the U.S. government's official web portal to all federal, state and local government web resources and services.